sensor_id;sensor_type;location;lat;lon;timestamp;P1;durP1;ratioP1;P2;durP2;ratioP2
38499;SDS011;24269;51.894;4.622;2022-08-20T00:00:34;16.45;;;9.13;;
38499;SDS011;24269;51.894;4.622;2022-08-20T00:03:06;15.35;;;9.40;;
38499;SDS011;24269;51.894;4.622;2022-08-20T00:05:36;13.68;;;9.50;;
38499;SDS011;24269;51.894;4.622;2022-08-20T00:08:03;16.40;;;9.60;;
38499;SDS011;24269;51.894;4.622;2022-08-20T00:10:30;16.70;;;9.90;;
38499;SDS011;24269;51.894;4.622;2022-08-20T00:12:58;14.48;;;9.45;;
38499;SDS011;24269;51.894;4.622;2022-08-20T00:15:28;15.65;;;9.63;;
38499;SDS011;24269;51.894;4.622;2022-08-20T00:17:56;19.80;;;10.63;;
38499;SDS011;24269;51.894;4.622;2022-08-20T00:20:25;16.35;;;9.90;;
38499;SDS011;24269;51.894;4.622;2022-08-20T00:22:53;16.83;;;8.40;;
38499;SDS011;24269;51.894;4.622;2022-08-20T00:25:19;15.50;;;9.43;;
38499;SDS011;24269;51.894;4.622;2022-08-20T00:27:45;17.25;;;9.73;;
38499;SDS011;24269;51.894;4.622;2022-08-20T00:30:13;16.58;;;9.40;;
38499;SDS011;24269;51.894;4.622;2022-08-20T00:32:46;13.23;;;9.18;;
38499;SDS011;24269;51.894;4.622;2022-08-20T00:35:40;10.82;;;8.05;;
38499;SDS011;24269;51.894;4.622;2022-08-20T00:38:07;13.02;;;8.00;;
38499;SDS011;24269;51.894;4.622;2022-08-20T00:40:36;13.52;;;8.02;;
38499;SDS011;24269;51.894;4.622;2022-08-20T00:46:07;14.10;;;8.45;;
38499;SDS011;24269;51.894;4.622;2022-08-20T00:48:35;10.52;;;7.90;;
38499;SDS011;24269;51.894;4.622;2022-08-20T00:51:07;14.20;;;8.25;;
38499;SDS011;24269;51.894;4.622;2022-08-20T00:53:39;15.60;;;8.00;;
38499;SDS011;24269;51.894;4.622;2022-08-20T00:56:06;11.68;;;7.20;;
38499;SDS011;24269;51.894;4.622;2022-08-20T00:58:33;10.45;;;5.40;;
38499;SDS011;24269;51.894;4.622;2022-08-20T01:01:01;14.27;;;6.05;;
38499;SDS011;24269;51.894;4.622;2022-08-20T01:03:28;9.80;;;5.43;;
38499;SDS011;24269;51.894;4.622;2022-08-20T01:05:54;11.13;;;5.47;;
38499;SDS011;24269;51.894;4.622;2022-08-20T01:08:20;10.18;;;5.82;;
38499;SDS011;24269;51.894;4.622;2022-08-20T01:10:48;10.65;;;6.50;;
38499;SDS011;24269;51.894;4.622;2022-08-20T01:13:22;13.27;;;6.75;;
38499;SDS011;24269;51.894;4.622;2022-08-20T01:15:50;14.02;;;6.78;;
38499;SDS011;24269;51.894;4.622;2022-08-20T01:18:20;12.40;;;7.45;;
38499;SDS011;24269;51.894;4.622;2022-08-20T01:20:54;13.23;;;7.45;;
38499;SDS011;24269;51.894;4.622;2022-08-20T01:31:02;18.05;;;12.38;;
38499;SDS011;24269;51.894;4.622;2022-08-20T01:33:30;18.70;;;13.13;;
38499;SDS011;24269;51.894;4.622;2022-08-20T01:35:56;17.92;;;12.55;;
38499;SDS011;24269;51.894;4.622;2022-08-20T01:38:22;18.45;;;12.77;;
38499;SDS011;24269;51.894;4.622;2022-08-20T01:41:09;16.63;;;12.73;;
38499;SDS011;24269;51.894;4.622;2022-08-20T01:43:47;20.13;;;11.80;;
38499;SDS011;24269;51.894;4.622;2022-08-20T01:48:44;17.33;;;10.82;;
38499;SDS011;24269;51.894;4.622;2022-08-20T01:51:13;17.58;;;10.15;;
38499;SDS011;24269;51.894;4.622;2022-08-20T01:53:49;16.80;;;9.77;;
38499;SDS011;24269;51.894;4.622;2022-08-20T01:56:19;17.52;;;9.32;;
38499;SDS011;24269;51.894;4.622;2022-08-20T01:58:48;19.20;;;9.50;;
38499;SDS011;24269;51.894;4.622;2022-08-20T02:01:18;17.02;;;10.65;;
38499;SDS011;24269;51.894;4.622;2022-08-20T02:03:46;17.95;;;10.00;;
38499;SDS011;24269;51.894;4.622;2022-08-20T02:06:12;17.67;;;10.13;;
38499;SDS011;24269;51.894;4.622;2022-08-20T02:08:38;15.90;;;10.63;;
38499;SDS011;24269;51.894;4.622;2022-08-20T02:11:03;18.77;;;10.98;;
38499;SDS011;24269;51.894;4.622;2022-08-20T02:13:29;17.63;;;10.90;;
38499;SDS011;24269;51.894;4.622;2022-08-20T02:15:56;17.90;;;11.23;;
38499;SDS011;24269;51.894;4.622;2022-08-20T02:18:22;17.70;;;10.90;;
38499;SDS011;24269;51.894;4.622;2022-08-20T02:20:47;18.02;;;11.40;;
38499;SDS011;24269;51.894;4.622;2022-08-20T02:23:15;17.15;;;10.43;;
38499;SDS011;24269;51.894;4.622;2022-08-20T02:25:41;16.20;;;11.45;;
38499;SDS011;24269;51.894;4.622;2022-08-20T02:28:09;17.60;;;11.68;;
38499;SDS011;24269;51.894;4.622;2022-08-20T02:30:40;19.08;;;11.60;;
38499;SDS011;24269;51.894;4.622;2022-08-20T02:33:09;17.98;;;11.20;;
38499;SDS011;24269;51.894;4.622;2022-08-20T02:35:37;16.70;;;11.13;;
38499;SDS011;24269;51.894;4.622;2022-08-20T02:38:03;14.63;;;10.77;;
38499;SDS011;24269;51.894;4.622;2022-08-20T02:40:29;16.20;;;10.98;;
38499;SDS011;24269;51.894;4.622;2022-08-20T02:42:56;15.57;;;11.05;;
38499;SDS011;24269;51.894;4.622;2022-08-20T02:45:22;17.33;;;10.20;;
38499;SDS011;24269;51.894;4.622;2022-08-20T02:47:48;14.60;;;10.60;;
38499;SDS011;24269;51.894;4.622;2022-08-20T02:50:17;16.83;;;10.80;;
38499;SDS011;24269;51.894;4.622;2022-08-20T02:52:44;17.45;;;10.00;;
38499;SDS011;24269;51.894;4.622;2022-08-20T02:55:10;17.30;;;10.52;;
38499;SDS011;24269;51.894;4.622;2022-08-20T02:57:37;19.65;;;12.02;;
38499;SDS011;24269;51.894;4.622;2022-08-20T03:00:07;20.77;;;10.63;;
38499;SDS011;24269;51.894;4.622;2022-08-20T03:02:36;19.27;;;11.32;;
38499;SDS011;24269;51.894;4.622;2022-08-20T03:05:04;17.30;;;10.95;;
38499;SDS011;24269;51.894;4.622;2022-08-20T03:07:52;17.58;;;11.70;;
38499;SDS011;24269;51.894;4.622;2022-08-20T03:10:21;18.98;;;11.45;;
38499;SDS011;24269;51.894;4.622;2022-08-20T03:12:51;19.00;;;10.57;;
38499;SDS011;24269;51.894;4.622;2022-08-20T03:15:17;20.55;;;10.50;;
38499;SDS011;24269;51.894;4.622;2022-08-20T03:17:44;17.40;;;10.68;;
38499;SDS011;24269;51.894;4.622;2022-08-20T03:20:10;17.10;;;9.25;;
38499;SDS011;24269;51.894;4.622;2022-08-20T03:22:37;16.70;;;9.05;;
38499;SDS011;24269;51.894;4.622;2022-08-20T03:25:03;16.05;;;9.38;;
38499;SDS011;24269;51.894;4.622;2022-08-20T03:27:29;18.45;;;9.68;;
38499;SDS011;24269;51.894;4.622;2022-08-20T03:29:55;13.40;;;9.57;;
38499;SDS011;24269;51.894;4.622;2022-08-20T03:32:20;18.30;;;9.27;;
38499;SDS011;24269;51.894;4.622;2022-08-20T03:34:46;16.50;;;8.90;;
38499;SDS011;24269;51.894;4.622;2022-08-20T03:37:12;15.90;;;8.57;;
38499;SDS011;24269;51.894;4.622;2022-08-20T03:39:38;17.27;;;8.73;;
38499;SDS011;24269;51.894;4.622;2022-08-20T03:42:03;14.80;;;8.20;;
38499;SDS011;24269;51.894;4.622;2022-08-20T03:44:29;17.73;;;8.50;;
38499;SDS011;24269;51.894;4.622;2022-08-20T03:46:55;19.60;;;9.45;;
38499;SDS011;24269;51.894;4.622;2022-08-20T03:49:20;13.43;;;8.38;;
38499;SDS011;24269;51.894;4.622;2022-08-20T03:51:49;16.65;;;8.27;;
38499;SDS011;24269;51.894;4.622;2022-08-20T03:54:15;14.68;;;8.35;;
38499;SDS011;24269;51.894;4.622;2022-08-20T03:56:41;14.38;;;8.73;;
38499;SDS011;24269;51.894;4.622;2022-08-20T03:59:07;15.05;;;7.93;;
38499;SDS011;24269;51.894;4.622;2022-08-20T04:01:32;15.35;;;8.50;;
38499;SDS011;24269;51.894;4.622;2022-08-20T04:03:59;13.45;;;8.05;;
38499;SDS011;24269;51.894;4.622;2022-08-20T04:06:25;18.45;;;7.95;;
38499;SDS011;24269;51.894;4.622;2022-08-20T04:08:53;13.95;;;7.93;;
38499;SDS011;24269;51.894;4.622;2022-08-20T04:11:19;12.57;;;8.10;;
38499;SDS011;24269;51.894;4.622;2022-08-20T04:13:45;16.42;;;8.40;;
38499;SDS011;24269;51.894;4.622;2022-08-20T04:16:10;18.63;;;8.27;;
38499;SDS011;24269;51.894;4.622;2022-08-20T04:18:36;16.88;;;8.18;;
38499;SDS011;24269;51.894;4.622;2022-08-20T04:21:02;13.82;;;8.25;;
38499;SDS011;24269;51.894;4.622;2022-08-20T04:23:29;14.10;;;7.72;;
38499;SDS011;24269;51.894;4.622;2022-08-20T04:25:55;21.77;;;8.80;;
38499;SDS011;24269;51.894;4.622;2022-08-20T04:28:21;15.02;;;8.55;;
38499;SDS011;24269;51.894;4.622;2022-08-20T04:30:50;18.08;;;9.05;;
38499;SDS011;24269;51.894;4.622;2022-08-20T04:33:20;17.77;;;8.93;;
38499;SDS011;24269;51.894;4.622;2022-08-20T04:35:48;13.35;;;8.38;;
38499;SDS011;24269;51.894;4.622;2022-08-20T04:38:15;12.65;;;8.75;;
38499;SDS011;24269;51.894;4.622;2022-08-20T04:40:45;16.23;;;8.52;;
38499;SDS011;24269;51.894;4.622;2022-08-20T04:43:26;17.05;;;8.45;;
38499;SDS011;24269;51.894;4.622;2022-08-20T04:45:58;15.68;;;8.95;;
38499;SDS011;24269;51.894;4.622;2022-08-20T04:48:26;21.30;;;9.00;;
38499;SDS011;24269;51.894;4.622;2022-08-20T04:50:53;15.77;;;8.93;;
38499;SDS011;24269;51.894;4.622;2022-08-20T04:53:22;13.77;;;8.57;;
38499;SDS011;24269;51.894;4.622;2022-08-20T04:55:50;18.90;;;9.05;;
38499;SDS011;24269;51.894;4.622;2022-08-20T04:58:18;17.17;;;9.07;;
38499;SDS011;24269;51.894;4.622;2022-08-20T05:00:56;16.42;;;8.65;;
38499;SDS011;24269;51.894;4.622;2022-08-20T05:03:23;14.05;;;8.50;;
38499;SDS011;24269;51.894;4.622;2022-08-20T05:05:52;16.85;;;8.60;;
38499;SDS011;24269;51.894;4.622;2022-08-20T05:08:18;17.88;;;8.98;;
38499;SDS011;24269;51.894;4.622;2022-08-20T05:10:47;18.63;;;9.52;;
38499;SDS011;24269;51.894;4.622;2022-08-20T05:13:14;18.17;;;9.38;;
38499;SDS011;24269;51.894;4.622;2022-08-20T05:15:40;16.38;;;9.38;;
38499;SDS011;24269;51.894;4.622;2022-08-20T05:18:07;18.27;;;9.90;;
38499;SDS011;24269;51.894;4.622;2022-08-20T05:20:36;15.02;;;9.77;;
38499;SDS011;24269;51.894;4.622;2022-08-20T05:23:09;23.30;;;10.10;;
38499;SDS011;24269;51.894;4.622;2022-08-20T05:25:37;17.45;;;10.43;;
38499;SDS011;24269;51.894;4.622;2022-08-20T05:28:05;18.92;;;10.50;;
38499;SDS011;24269;51.894;4.622;2022-08-20T05:30:34;21.08;;;10.50;;
38499;SDS011;24269;51.894;4.622;2022-08-20T05:33:02;17.98;;;10.55;;
38499;SDS011;24269;51.894;4.622;2022-08-20T05:35:29;17.48;;;9.50;;
38499;SDS011;24269;51.894;4.622;2022-08-20T05:37:59;17.88;;;10.27;;
38499;SDS011;24269;51.894;4.622;2022-08-20T05:40:25;18.13;;;10.23;;
38499;SDS011;24269;51.894;4.622;2022-08-20T05:42:52;18.80;;;10.45;;
38499;SDS011;24269;51.894;4.622;2022-08-20T05:45:18;17.48;;;10.43;;
38499;SDS011;24269;51.894;4.622;2022-08-20T05:47:44;20.88;;;10.95;;
38499;SDS011;24269;51.894;4.622;2022-08-20T05:50:15;20.15;;;10.45;;
38499;SDS011;24269;51.894;4.622;2022-08-20T05:52:42;19.20;;;9.68;;
38499;SDS011;24269;51.894;4.622;2022-08-20T05:55:09;16.08;;;9.55;;
38499;SDS011;24269;51.894;4.622;2022-08-20T05:57:37;19.58;;;10.07;;
38499;SDS011;24269;51.894;4.622;2022-08-20T06:00:04;18.08;;;10.23;;
38499;SDS011;24269;51.894;4.622;2022-08-20T06:02:32;16.25;;;9.65;;
38499;SDS011;24269;51.894;4.622;2022-08-20T06:05:17;15.27;;;9.15;;
38499;SDS011;24269;51.894;4.622;2022-08-20T06:07:43;15.35;;;9.98;;
38499;SDS011;24269;51.894;4.622;2022-08-20T06:10:10;17.10;;;9.75;;
38499;SDS011;24269;51.894;4.622;2022-08-20T06:12:36;14.80;;;9.02;;
38499;SDS011;24269;51.894;4.622;2022-08-20T06:15:05;16.13;;;9.23;;
38499;SDS011;24269;51.894;4.622;2022-08-20T06:17:31;18.48;;;8.77;;
38499;SDS011;24269;51.894;4.622;2022-08-20T06:20:02;13.20;;;9.05;;
38499;SDS011;24269;51.894;4.622;2022-08-20T06:22:30;14.55;;;8.57;;
38499;SDS011;24269;51.894;4.622;2022-08-20T06:24:56;21.50;;;8.85;;
38499;SDS011;24269;51.894;4.622;2022-08-20T06:27:22;14.35;;;7.97;;
38499;SDS011;24269;51.894;4.622;2022-08-20T06:29:48;15.25;;;7.30;;
38499;SDS011;24269;51.894;4.622;2022-08-20T06:32:14;17.23;;;7.68;;
38499;SDS011;24269;51.894;4.622;2022-08-20T06:34:41;17.52;;;7.50;;
38499;SDS011;24269;51.894;4.622;2022-08-20T06:37:17;18.10;;;6.97;;
38499;SDS011;24269;51.894;4.622;2022-08-20T06:39:48;13.50;;;7.57;;
38499;SDS011;24269;51.894;4.622;2022-08-20T06:42:14;18.63;;;6.43;;
38499;SDS011;24269;51.894;4.622;2022-08-20T06:44:40;13.50;;;5.68;;
38499;SDS011;24269;51.894;4.622;2022-08-20T06:47:06;10.40;;;4.82;;
38499;SDS011;24269;51.894;4.622;2022-08-20T06:49:35;11.82;;;4.47;;
38499;SDS011;24269;51.894;4.622;2022-08-20T06:52:02;13.98;;;4.60;;
38499;SDS011;24269;51.894;4.622;2022-08-20T06:54:28;11.52;;;4.20;;
38499;SDS011;24269;51.894;4.622;2022-08-20T06:56:54;10.95;;;3.75;;
38499;SDS011;24269;51.894;4.622;2022-08-20T06:59:19;16.17;;;4.53;;
38499;SDS011;24269;51.894;4.622;2022-08-20T07:01:45;11.82;;;3.60;;
38499;SDS011;24269;51.894;4.622;2022-08-20T07:04:13;12.30;;;3.35;;
38499;SDS011;24269;51.894;4.622;2022-08-20T07:06:39;11.55;;;3.47;;
38499;SDS011;24269;51.894;4.622;2022-08-20T07:09:06;12.35;;;3.28;;
38499;SDS011;24269;51.894;4.622;2022-08-20T07:11:32;12.35;;;2.90;;
38499;SDS011;24269;51.894;4.622;2022-08-20T07:13:59;12.63;;;3.05;;
38499;SDS011;24269;51.894;4.622;2022-08-20T07:16:29;9.63;;;2.55;;
38499;SDS011;24269;51.894;4.622;2022-08-20T07:18:56;12.23;;;3.50;;
38499;SDS011;24269;51.894;4.622;2022-08-20T07:21:22;13.43;;;3.35;;
38499;SDS011;24269;51.894;4.622;2022-08-20T07:23:48;11.30;;;2.72;;
38499;SDS011;24269;51.894;4.622;2022-08-20T07:26:14;10.65;;;3.25;;
38499;SDS011;24269;51.894;4.622;2022-08-20T07:28:39;13.80;;;3.20;;
38499;SDS011;24269;51.894;4.622;2022-08-20T07:31:05;10.25;;;3.33;;
38499;SDS011;24269;51.894;4.622;2022-08-20T07:33:49;12.38;;;3.17;;
38499;SDS011;24269;51.894;4.622;2022-08-20T07:36:15;11.07;;;2.90;;
38499;SDS011;24269;51.894;4.622;2022-08-20T07:38:41;13.55;;;2.78;;
38499;SDS011;24269;51.894;4.622;2022-08-20T07:41:10;12.35;;;2.47;;
38499;SDS011;24269;51.894;4.622;2022-08-20T07:43:37;12.95;;;2.75;;
38499;SDS011;24269;51.894;4.622;2022-08-20T07:46:03;12.10;;;2.33;;
38499;SDS011;24269;51.894;4.622;2022-08-20T07:48:33;11.95;;;2.33;;
38499;SDS011;24269;51.894;4.622;2022-08-20T07:51:01;10.32;;;1.85;;
38499;SDS011;24269;51.894;4.622;2022-08-20T07:53:28;11.63;;;2.30;;
38499;SDS011;24269;51.894;4.622;2022-08-20T07:55:55;10.18;;;2.10;;
38499;SDS011;24269;51.894;4.622;2022-08-20T07:58:21;7.93;;;1.90;;
38499;SDS011;24269;51.894;4.622;2022-08-20T08:00:49;11.10;;;2.10;;
38499;SDS011;24269;51.894;4.622;2022-08-20T08:03:15;10.25;;;2.10;;
38499;SDS011;24269;51.894;4.622;2022-08-20T08:05:42;10.10;;;2.00;;
38499;SDS011;24269;51.894;4.622;2022-08-20T08:08:11;9.20;;;2.53;;
38499;SDS011;24269;51.894;4.622;2022-08-20T08:10:41;8.65;;;2.40;;
38499;SDS011;24269;51.894;4.622;2022-08-20T08:13:08;11.43;;;2.58;;
38499;SDS011;24269;51.894;4.622;2022-08-20T08:15:37;9.00;;;1.90;;
38499;SDS011;24269;51.894;4.622;2022-08-20T08:18:07;12.27;;;2.20;;
38499;SDS011;24269;51.894;4.622;2022-08-20T08:20:36;8.55;;;1.70;;
38499;SDS011;24269;51.894;4.622;2022-08-20T08:23:08;9.32;;;2.20;;
38499;SDS011;24269;51.894;4.622;2022-08-20T08:25:37;9.73;;;2.13;;
38499;SDS011;24269;51.894;4.622;2022-08-20T08:28:03;9.30;;;2.08;;
38499;SDS011;24269;51.894;4.622;2022-08-20T08:30:29;9.95;;;1.88;;
38499;SDS011;24269;51.894;4.622;2022-08-20T08:32:55;10.07;;;2.20;;
38499;SDS011;24269;51.894;4.622;2022-08-20T08:35:40;8.98;;;1.83;;
38499;SDS011;24269;51.894;4.622;2022-08-20T08:38:11;13.07;;;1.85;;
38499;SDS011;24269;51.894;4.622;2022-08-20T08:40:36;11.50;;;2.25;;
38499;SDS011;24269;51.894;4.622;2022-08-20T08:43:02;8.38;;;1.70;;
38499;SDS011;24269;51.894;4.622;2022-08-20T08:45:42;10.85;;;1.90;;
38499;SDS011;24269;51.894;4.622;2022-08-20T08:48:14;8.00;;;1.90;;
38499;SDS011;24269;51.894;4.622;2022-08-20T08:50:43;11.20;;;2.20;;
38499;SDS011;24269;51.894;4.622;2022-08-20T08:53:30;12.88;;;2.60;;
38499;SDS011;24269;51.894;4.622;2022-08-20T08:55:59;9.52;;;1.73;;
38499;SDS011;24269;51.894;4.622;2022-08-20T08:58:26;8.68;;;1.67;;
38499;SDS011;24269;51.894;4.622;2022-08-20T09:00:52;8.35;;;2.08;;
38499;SDS011;24269;51.894;4.622;2022-08-20T09:03:28;10.80;;;2.45;;
38499;SDS011;24269;51.894;4.622;2022-08-20T09:05:57;8.63;;;2.10;;
38499;SDS011;24269;51.894;4.622;2022-08-20T09:08:26;9.13;;;2.58;;
38499;SDS011;24269;51.894;4.622;2022-08-20T09:11:04;8.88;;;2.55;;
38499;SDS011;24269;51.894;4.622;2022-08-20T09:13:32;9.57;;;2.20;;
38499;SDS011;24269;51.894;4.622;2022-08-20T09:15:58;10.15;;;1.95;;
38499;SDS011;24269;51.894;4.622;2022-08-20T09:18:23;10.43;;;2.03;;
38499;SDS011;24269;51.894;4.622;2022-08-20T09:20:49;10.13;;;1.98;;
38499;SDS011;24269;51.894;4.622;2022-08-20T09:23:15;9.32;;;2.20;;
38499;SDS011;24269;51.894;4.622;2022-08-20T09:25:40;12.32;;;2.25;;
38499;SDS011;24269;51.894;4.622;2022-08-20T09:28:07;8.10;;;1.67;;
38499;SDS011;24269;51.894;4.622;2022-08-20T09:30:32;7.93;;;2.00;;
38499;SDS011;24269;51.894;4.622;2022-08-20T09:32:58;10.48;;;2.10;;
38499;SDS011;24269;51.894;4.622;2022-08-20T09:35:25;12.32;;;2.30;;
38499;SDS011;24269;51.894;4.622;2022-08-20T09:37:51;9.35;;;2.42;;
38499;SDS011;24269;51.894;4.622;2022-08-20T09:40:17;9.80;;;2.15;;
38499;SDS011;24269;51.894;4.622;2022-08-20T09:42:43;6.63;;;1.95;;
38499;SDS011;24269;51.894;4.622;2022-08-20T09:45:10;9.68;;;2.25;;
38499;SDS011;24269;51.894;4.622;2022-08-20T09:47:36;12.32;;;2.78;;
38499;SDS011;24269;51.894;4.622;2022-08-20T09:50:03;11.50;;;2.50;;
38499;SDS011;24269;51.894;4.622;2022-08-20T09:52:30;12.63;;;2.65;;
38499;SDS011;24269;51.894;4.622;2022-08-20T09:57:54;10.38;;;2.22;;
38499;SDS011;24269;51.894;4.622;2022-08-20T10:03:33;10.90;;;2.70;;
38499;SDS011;24269;51.894;4.622;2022-08-20T10:05:58;8.90;;;2.13;;
38499;SDS011;24269;51.894;4.622;2022-08-20T10:08:24;10.35;;;2.00;;
38499;SDS011;24269;51.894;4.622;2022-08-20T10:10:50;10.35;;;2.10;;
38499;SDS011;24269;51.894;4.622;2022-08-20T10:13:16;10.32;;;2.13;;
38499;SDS011;24269;51.894;4.622;2022-08-20T10:15:41;10.88;;;2.03;;
38499;SDS011;24269;51.894;4.622;2022-08-20T10:18:07;10.40;;;1.95;;
38499;SDS011;24269;51.894;4.622;2022-08-20T10:20:33;9.00;;;2.15;;
38499;SDS011;24269;51.894;4.622;2022-08-20T10:22:59;9.38;;;1.92;;
38499;SDS011;24269;51.894;4.622;2022-08-20T10:25:25;7.70;;;1.60;;
38499;SDS011;24269;51.894;4.622;2022-08-20T10:27:52;9.10;;;1.83;;
38499;SDS011;24269;51.894;4.622;2022-08-20T10:30:18;8.10;;;1.77;;
38499;SDS011;24269;51.894;4.622;2022-08-20T10:32:44;10.48;;;1.90;;
38499;SDS011;24269;51.894;4.622;2022-08-20T10:35:10;9.38;;;2.08;;
38499;SDS011;24269;51.894;4.622;2022-08-20T10:37:35;9.90;;;2.00;;
38499;SDS011;24269;51.894;4.622;2022-08-20T10:40:01;9.02;;;1.38;;
38499;SDS011;24269;51.894;4.622;2022-08-20T10:42:27;9.95;;;2.08;;
38499;SDS011;24269;51.894;4.622;2022-08-20T10:44:53;8.57;;;1.75;;
38499;SDS011;24269;51.894;4.622;2022-08-20T10:47:27;10.93;;;1.73;;
38499;SDS011;24269;51.894;4.622;2022-08-20T10:49:58;7.70;;;1.95;;
38499;SDS011;24269;51.894;4.622;2022-08-20T10:52:26;6.13;;;1.35;;
38499;SDS011;24269;51.894;4.622;2022-08-20T10:54:52;7.50;;;1.65;;
38499;SDS011;24269;51.894;4.622;2022-08-20T10:57:19;10.35;;;1.80;;
38499;SDS011;24269;51.894;4.622;2022-08-20T10:59:53;7.53;;;1.55;;
38499;SDS011;24269;51.894;4.622;2022-08-20T11:02:21;9.38;;;1.67;;
38499;SDS011;24269;51.894;4.622;2022-08-20T11:04:47;9.05;;;2.13;;
38499;SDS011;24269;51.894;4.622;2022-08-20T11:09:39;10.88;;;1.52;;
38499;SDS011;24269;51.894;4.622;2022-08-20T11:12:05;10.43;;;1.83;;
38499;SDS011;24269;51.894;4.622;2022-08-20T11:14:30;7.88;;;1.58;;
38499;SDS011;24269;51.894;4.622;2022-08-20T11:16:57;7.75;;;1.90;;
38499;SDS011;24269;51.894;4.622;2022-08-20T11:19:23;8.45;;;1.90;;
38499;SDS011;24269;51.894;4.622;2022-08-20T11:21:49;7.90;;;1.92;;
38499;SDS011;24269;51.894;4.622;2022-08-20T11:24:14;8.73;;;1.85;;
38499;SDS011;24269;51.894;4.622;2022-08-20T11:26:40;7.45;;;1.70;;
38499;SDS011;24269;51.894;4.622;2022-08-20T11:29:06;9.75;;;1.80;;
38499;SDS011;24269;51.894;4.622;2022-08-20T11:31:31;8.45;;;2.00;;
38499;SDS011;24269;51.894;4.622;2022-08-20T11:33:57;10.25;;;2.20;;
38499;SDS011;24269;51.894;4.622;2022-08-20T11:36:22;10.13;;;2.08;;
38499;SDS011;24269;51.894;4.622;2022-08-20T11:38:50;9.13;;;1.92;;
38499;SDS011;24269;51.894;4.622;2022-08-20T11:41:16;9.55;;;1.75;;
38499;SDS011;24269;51.894;4.622;2022-08-20T11:43:42;8.75;;;1.85;;
38499;SDS011;24269;51.894;4.622;2022-08-20T11:46:08;11.43;;;1.73;;
38499;SDS011;24269;51.894;4.622;2022-08-20T11:48:33;10.15;;;1.98;;
38499;SDS011;24269;51.894;4.622;2022-08-20T11:50:59;7.90;;;1.70;;
38499;SDS011;24269;51.894;4.622;2022-08-20T11:53:25;8.80;;;1.80;;
38499;SDS011;24269;51.894;4.622;2022-08-20T11:55:50;15.38;;;3.13;;
38499;SDS011;24269;51.894;4.622;2022-08-20T11:58:16;12.20;;;3.10;;
38499;SDS011;24269;51.894;4.622;2022-08-20T12:00:42;11.98;;;2.13;;
38499;SDS011;24269;51.894;4.622;2022-08-20T12:03:08;10.00;;;2.05;;
38499;SDS011;24269;51.894;4.622;2022-08-20T12:05:34;11.00;;;1.98;;
38499;SDS011;24269;51.894;4.622;2022-08-20T12:08:01;10.50;;;2.17;;
38499;SDS011;24269;51.894;4.622;2022-08-20T12:10:27;10.77;;;2.38;;
38499;SDS011;24269;51.894;4.622;2022-08-20T12:12:54;7.47;;;1.80;;
38499;SDS011;24269;51.894;4.622;2022-08-20T12:15:20;9.73;;;1.90;;
38499;SDS011;24269;51.894;4.622;2022-08-20T12:17:45;7.93;;;2.13;;
38499;SDS011;24269;51.894;4.622;2022-08-20T12:20:11;12.45;;;1.83;;
38499;SDS011;24269;51.894;4.622;2022-08-20T12:22:38;8.75;;;1.90;;
38499;SDS011;24269;51.894;4.622;2022-08-20T12:25:05;9.23;;;2.10;;
38499;SDS011;24269;51.894;4.622;2022-08-20T12:27:33;7.72;;;1.80;;
38499;SDS011;24269;51.894;4.622;2022-08-20T12:30:04;8.75;;;1.85;;
38499;SDS011;24269;51.894;4.622;2022-08-20T12:32:33;9.77;;;2.00;;
38499;SDS011;24269;51.894;4.622;2022-08-20T12:34:59;6.68;;;1.52;;
38499;SDS011;24269;51.894;4.622;2022-08-20T12:37:27;6.75;;;1.60;;
38499;SDS011;24269;51.894;4.622;2022-08-20T12:39:55;9.63;;;1.77;;
38499;SDS011;24269;51.894;4.622;2022-08-20T12:42:23;7.30;;;1.98;;
38499;SDS011;24269;51.894;4.622;2022-08-20T12:44:49;9.23;;;3.50;;
38499;SDS011;24269;51.894;4.622;2022-08-20T12:47:19;10.45;;;2.30;;
38499;SDS011;24269;51.894;4.622;2022-08-20T12:49:51;8.85;;;2.97;;
38499;SDS011;24269;51.894;4.622;2022-08-20T12:52:20;9.80;;;3.05;;
38499;SDS011;24269;51.894;4.622;2022-08-20T12:54:47;8.15;;;1.67;;
38499;SDS011;24269;51.894;4.622;2022-08-20T12:57:34;7.22;;;1.40;;
38499;SDS011;24269;51.894;4.622;2022-08-20T13:00:09;6.72;;;1.80;;
38499;SDS011;24269;51.894;4.622;2022-08-20T13:02:38;8.50;;;1.80;;
38499;SDS011;24269;51.894;4.622;2022-08-20T13:05:05;7.93;;;2.17;;
38499;SDS011;24269;51.894;4.622;2022-08-20T13:07:36;7.10;;;1.70;;
38499;SDS011;24269;51.894;4.622;2022-08-20T13:10:03;10.10;;;1.92;;
38499;SDS011;24269;51.894;4.622;2022-08-20T13:12:31;7.25;;;1.60;;
38499;SDS011;24269;51.894;4.622;2022-08-20T13:14:56;7.20;;;1.75;;
38499;SDS011;24269;51.894;4.622;2022-08-20T13:17:22;6.72;;;1.67;;
38499;SDS011;24269;51.894;4.622;2022-08-20T13:19:48;6.72;;;1.60;;
38499;SDS011;24269;51.894;4.622;2022-08-20T13:22:13;10.02;;;1.80;;
38499;SDS011;24269;51.894;4.622;2022-08-20T13:24:40;7.13;;;1.73;;
38499;SDS011;24269;51.894;4.622;2022-08-20T13:27:07;7.00;;;1.92;;
38499;SDS011;24269;51.894;4.622;2022-08-20T13:29:35;8.32;;;1.90;;
38499;SDS011;24269;51.894;4.622;2022-08-20T13:32:01;6.18;;;1.60;;
38499;SDS011;24269;51.894;4.622;2022-08-20T13:34:27;7.68;;;2.20;;
38499;SDS011;24269;51.894;4.622;2022-08-20T13:36:53;11.57;;;2.40;;
38499;SDS011;24269;51.894;4.622;2022-08-20T13:39:19;9.13;;;1.85;;
38499;SDS011;24269;51.894;4.622;2022-08-20T13:41:46;7.82;;;1.95;;
38499;SDS011;24269;51.894;4.622;2022-08-20T13:44:12;7.38;;;1.80;;
38499;SDS011;24269;51.894;4.622;2022-08-20T13:46:38;8.95;;;1.98;;
38499;SDS011;24269;51.894;4.622;2022-08-20T13:49:03;9.52;;;1.55;;
38499;SDS011;24269;51.894;4.622;2022-08-20T13:51:29;7.20;;;1.70;;
38499;SDS011;24269;51.894;4.622;2022-08-20T13:53:54;6.93;;;1.98;;
38499;SDS011;24269;51.894;4.622;2022-08-20T13:56:20;9.90;;;1.80;;
38499;SDS011;24269;51.894;4.622;2022-08-20T13:58:46;6.72;;;2.30;;
38499;SDS011;24269;51.894;4.622;2022-08-20T14:01:12;7.15;;;1.98;;
38499;SDS011;24269;51.894;4.622;2022-08-20T14:03:37;8.43;;;1.73;;
38499;SDS011;24269;51.894;4.622;2022-08-20T14:06:03;7.03;;;2.22;;
38499;SDS011;24269;51.894;4.622;2022-08-20T14:08:29;6.93;;;1.60;;
38499;SDS011;24269;51.894;4.622;2022-08-20T14:10:55;5.22;;;1.42;;
38499;SDS011;24269;51.894;4.622;2022-08-20T14:13:22;7.07;;;1.80;;
38499;SDS011;24269;51.894;4.622;2022-08-20T14:15:49;8.77;;;1.77;;
38499;SDS011;24269;51.894;4.622;2022-08-20T14:18:15;7.05;;;1.38;;
38499;SDS011;24269;51.894;4.622;2022-08-20T14:20:41;7.80;;;1.63;;
38499;SDS011;24269;51.894;4.622;2022-08-20T14:23:08;9.60;;;1.65;;
38499;SDS011;24269;51.894;4.622;2022-08-20T14:25:34;8.07;;;1.95;;
38499;SDS011;24269;51.894;4.622;2022-08-20T14:28:13;8.35;;;1.70;;
38499;SDS011;24269;51.894;4.622;2022-08-20T14:30:41;5.63;;;1.60;;
38499;SDS011;24269;51.894;4.622;2022-08-20T14:33:07;8.50;;;1.67;;
38499;SDS011;24269;51.894;4.622;2022-08-20T14:35:33;6.35;;;1.30;;
38499;SDS011;24269;51.894;4.622;2022-08-20T14:37:59;9.45;;;1.70;;
38499;SDS011;24269;51.894;4.622;2022-08-20T14:40:25;5.65;;;1.17;;
38499;SDS011;24269;51.894;4.622;2022-08-20T14:42:52;6.40;;;1.50;;
38499;SDS011;24269;51.894;4.622;2022-08-20T14:45:18;5.65;;;1.58;;
38499;SDS011;24269;51.894;4.622;2022-08-20T14:47:45;9.73;;;1.33;;
38499;SDS011;24269;51.894;4.622;2022-08-20T14:50:22;5.55;;;1.40;;
38499;SDS011;24269;51.894;4.622;2022-08-20T14:52:51;6.07;;;1.35;;
38499;SDS011;24269;51.894;4.622;2022-08-20T14:55:17;5.90;;;1.23;;
38499;SDS011;24269;51.894;4.622;2022-08-20T14:57:45;6.18;;;1.45;;
38499;SDS011;24269;51.894;4.622;2022-08-20T15:00:13;8.88;;;1.58;;
38499;SDS011;24269;51.894;4.622;2022-08-20T15:02:45;5.20;;;1.20;;